地図

経路データ

SID SEASON NUMBER BASIN SUBBASIN NAME ISO_TIME NATURE LAT LON WMO_WIND WMO_PRES WMO_AGENCY TRACK_TYPE DIST2LAND LANDFALL IFLAG USA_AGENCY USA_ATCF_ID USA_LAT USA_LON USA_RECORD USA_STATUS USA_WIND USA_PRES USA_SSHS USA_R34_NE USA_R34_SE USA_R34_SW USA_R34_NW USA_R50_NE USA_R50_SE USA_R50_SW USA_R50_NW USA_R64_NE USA_R64_SE USA_R64_SW USA_R64_NW USA_POCI USA_ROCI USA_RMW USA_EYE TOKYO_LAT TOKYO_LON TOKYO_GRADE TOKYO_WIND TOKYO_PRES TOKYO_R50_DIR TOKYO_R50_LONG TOKYO_R50_SHORT TOKYO_R30_DIR TOKYO_R30_LONG TOKYO_R30_SHORT TOKYO_LAND CMA_LAT CMA_LON CMA_CAT CMA_WIND CMA_PRES HKO_LAT HKO_LON HKO_CAT HKO_WIND HKO_PRES NEWDELHI_LAT NEWDELHI_LON NEWDELHI_GRADE NEWDELHI_WIND NEWDELHI_PRES NEWDELHI_CI NEWDELHI_DP NEWDELHI_POCI REUNION_LAT REUNION_LON REUNION_TYPE REUNION_WIND REUNION_PRES REUNION_TNUM REUNION_CI REUNION_RMW REUNION_R34_NE REUNION_R34_SE REUNION_R34_SW REUNION_R34_NW REUNION_R50_NE REUNION_R50_SE REUNION_R50_SW REUNION_R50_NW REUNION_R64_NE REUNION_R64_SE REUNION_R64_SW REUNION_R64_NW BOM_LAT BOM_LON BOM_TYPE BOM_WIND BOM_PRES BOM_TNUM BOM_CI BOM_RMW BOM_R34_NE BOM_R34_SE BOM_R34_SW BOM_R34_NW BOM_R50_NE BOM_R50_SE BOM_R50_SW BOM_R50_NW BOM_R64_NE BOM_R64_SE BOM_R64_SW BOM_R64_NW BOM_ROCI BOM_POCI BOM_EYE BOM_POS_METHOD BOM_PRES_METHOD NADI_LAT NADI_LON NADI_CAT NADI_WIND NADI_PRES WELLINGTON_LAT WELLINGTON_LON WELLINGTON_WIND WELLINGTON_PRES DS824_LAT DS824_LON DS824_STAGE DS824_WIND DS824_PRES TD9636_LAT TD9636_LON TD9636_STAGE TD9636_WIND TD9636_PRES TD9635_LAT TD9635_LON TD9635_WIND TD9635_PRES TD9635_ROCI NEUMANN_LAT NEUMANN_LON NEUMANN_CLASS NEUMANN_WIND NEUMANN_PRES MLC_LAT MLC_LON MLC_CLASS MLC_WIND MLC_PRES USA_GUST BOM_GUST BOM_GUST_PER REUNION_GUST REUNION_GUST_PER USA_SEAHGT USA_SEARAD_NE USA_SEARAD_SE USA_SEARAD_SW USA_SEARAD_NW STORM_SPEED STORM_DIR
1958170S28155 1958 45 SP EA NOT_NAMED 1958-06-18 23:00:00 NR -28.2000 155.000 1012 bom main 137 137 ______O___O___ -1 -28.2000 155.000 1012 -28.2000 155.000 2 35 5 18
1958170S28155 1958 45 SP EA NOT_NAMED 1958-06-19 00:00:00 TS -28.1157 155.000 main 137 137 O_____P__OP___ jtwc_sh SH331958 -28.0000 155.000 35 0 -28.2864 155.000 1011 -28.2000 155.000 TC 15 1012 -28.0184 155.000 2 35 6 4
1958170S28155 1958 45 SP EA NOT_NAMED 1958-06-19 03:00:00 TS -27.8171 155.001 main 144 144 P_____P__PP___ SH331958 -27.4175 155.002 40 0 -28.3975 155.000 1009 -28.2100 155.000 TC 15 1010 -27.5078 155.000 2 37 7 0
1958170S28155 1958 45 SP EA NOT_NAMED 1958-06-19 05:00:00 TS -27.5711 155.001 1008 bom main 152 152 P_____O__PP___ SH331958 -27.1106 155.002 43 0 -28.2000 155.000 1008 -28.1080 155.000 TC 15 1008 -27.2301 155.000 2 39 8 0
1958170S28155 1958 45 SP EA NOT_NAMED 1958-06-19 06:00:00 TS -27.4210 155.000 main 164 164 O_____P__OP___ jtwc_sh SH331958 -27.0000 155.000 45 0 -27.9846 155.000 1007 -28.0000 155.000 TC 15 1008 -27.1204 155.000 2 40 7 0
1958170S28155 1958 45 SP EA NOT_NAMED 1958-06-19 09:00:00 TS -27.0877 154.997 main 173 173 P_____P__PP___ SH331958 -26.8850 154.993 45 0 -27.2124 155.000 1006 -27.5075 155.000 TC 15 1007 -26.9488 155.000 2 42 4 0
1958170S28155 1958 45 SP EA NOT_NAMED 1958-06-19 11:00:00 TS -27.0552 154.998 1006 bom main 173 173 P_____O__PO___ SH331958 -26.9917 154.994 45 0 -27.0000 155.000 1006 -27.2928 155.000 TC 15 1006 -27.0000 155.000 2 44 1 0
1958170S28155 1958 45 SP EA NOT_NAMED 1958-06-19 12:00:00 TS -27.1564 154.999 main 171 144 O_____P__OP___ jtwc_sh SH331958 -27.1000 155.000 45 0 -27.1978 154.995 1006 -27.3000 155.000 TC 15 1006 -27.0841 155.000 2 43 12 179
1958170S28155 1958 45 SP EA NOT_NAMED 1958-06-19 15:00:00 TS -27.8343 155.009 main 144 137 P_____P__PP___ SH331958 -27.6325 155.042 42 0 -28.3018 154.984 1006 -28.0750 154.970 TC 15 1006 -27.5297 155.008 2 41 15 178
1958170S28155 1958 45 SP EA NOT_NAMED 1958-06-19 17:00:00 TS -28.3667 155.033 1006 bom main 138 137 P_____O__PP___ SH331958 -28.0826 155.081 40 0 -29.0000 155.000 1006 -28.7336 154.977 TC 15 1006 -27.9348 155.026 2 40 15 177
1958170S28155 1958 45 SP EA NOT_NAMED 1958-06-19 18:00:00 TS -28.5758 155.048 main 136 136 O_____P__OP___ jtwc_sh SH331958 -28.3000 155.100 40 0 -29.1255 155.001 1006 -29.0000 155.000 TC 15 1006 -28.1537 155.040 2 39 9 173
1958170S28155 1958 45 SP EA NOT_NAMED 1958-06-19 21:00:00 TS -28.9868 155.114 main 146 146 P_____P__PP___ SH331958 -28.8449 155.128 37 0 -29.1991 155.060 1006 -29.2323 155.140 TC 15 1006 -28.8125 155.116 2 37 8 167
1958170S28155 1958 45 SP EA NOT_NAMED 1958-06-19 23:00:00 TS -29.1985 155.207 1006 bom main 158 158 P_____O__PO___ SH331958 -29.1614 155.166 35 0 -29.2000 155.200 1006 -29.2695 155.300 TC 15 1006 -29.2000 155.200 2 36 7 157
1958170S28155 1958 45 SP EA NOT_NAMED 1958-06-20 00:00:00 TS -29.3040 155.271 main 170 170 O_____P__OP___ jtwc_sh SH331958 -29.3000 155.200 35 0 -29.2828 155.347 1006 -29.3000 155.400 TC 15 1006 -29.3370 155.210 2 34 8 147
1958170S28155 1958 45 SP EA NOT_NAMED 1958-06-20 03:00:00 TS -29.6360 155.538 main 199 199 P_____P__PP___ SH331958 -29.6523 155.348 30 -1 -29.5948 155.901 1006 -29.5930 155.829 TC 15 1006 -29.6877 155.264 2 30 8 142
1958170S28155 1958 45 SP EA NOT_NAMED 1958-06-20 05:00:00 TS -29.8263 155.732 1006 bom main 226 226 P_____O__PP___ SH331958 -29.8275 155.503 26 -1 -29.8000 156.200 1006 -29.8038 156.101 TC 15 1006 -29.8725 155.355 2 28 7 138
1958170S28155 1958 45 SP EA NOT_NAMED 1958-06-20 06:00:00 TS -29.9036 155.817 main 238 238 O_____P__OP___ jtwc_sh SH331958 -29.9000 155.600 25 -1 -29.8674 156.257 1006 -29.9000 156.200 TC 15 1006 -29.9505 155.427 2 26 5 141
1958170S28155 1958 45 SP EA NOT_NAMED 1958-06-20 09:00:00 TS -30.0963 155.981 main 260 260 P_____P__PP___ SH331958 -30.1002 155.827 22 -1 -30.0457 156.255 1006 -30.1071 156.201 TC 15 1006 -30.1282 155.795 2 22 5 134
1958170S28155 1958 45 SP EA NOT_NAMED 1958-06-20 11:00:00 TS -30.1982 156.174 1006 bom main 280 280 P_____O__PO___ SH331958 -30.1791 156.148 20 -1 -30.2000 156.200 1006 -30.2327 156.176 TC 15 1006 -30.2000 156.200 1 20 7 119
1958170S28155 1958 45 SP EA NOT_NAMED 1958-06-20 12:00:00 TS -30.2549 156.319 main 291 291 O_____P__OP___ jtwc_sh SH331958 -30.2000 156.400 20 -1 -30.3554 156.074 1006 -30.3000 156.200 TC 15 1006 -30.2194 156.520 1 20 12 106
1958170S28155 1958 45 SP EA NOT_NAMED 1958-06-20 15:00:00 TS -30.4107 157.028 main 359 359 P_____P__PP___ SH331958 -30.1834 157.661 22 -1 -30.8462 155.818 1008 -30.6344 156.290 TC 15 1008 -30.2060 157.711 1 21 15 99
1958170S28155 1958 45 SP EA NOT_NAMED 1958-06-20 17:00:00 TS -30.4396 157.749 1010 bom main 426 426 P_____O__PP___ SH331958 -30.1287 158.641 24 -1 -31.0000 156.200 1010 -30.7844 156.655 TC 15 1009 -30.1560 158.606 1 22 20 90
1958170S28155 1958 45 SP EA NOT_NAMED 1958-06-20 18:00:00 TS -30.4106 158.210 main 473 473 O_____P__OP___ jtwc_sh SH331958 -30.1000 159.100 25 -1 -30.9283 156.794 1009 -30.8000 157.000 TC 15 1010 -30.1248 159.057 1 22 27 82
1958170S28155 1958 45 SP EA NOT_NAMED 1958-06-20 21:00:00 TS -30.1901 159.831 main 616 616 P_____P__PP___ SH331958 -30.0272 160.265 25 -1 -30.3984 159.341 1008 -30.4640 158.964 TC 15 1008 -30.0336 160.321 1 24 28 80
1958170S28155 1958 45 SP MM NOT_NAMED 1958-06-20 23:00:00 TS -30.0276 160.839 1007 bom main 706 706 P_____O__PO___ SH331958 -29.9995 160.871 25 -1 -30.0000 161.000 1007 -30.1387 160.451 TC 15 1007 -30.0000 161.000 1 25 24 80
1958170S28155 1958 45 SP MM NOT_NAMED 1958-06-21 00:00:00 TS -29.9781 161.192 main 744 744 O_____P__OP___ jtwc_sh SH331958 -30.0000 161.100 25 -1 -29.9001 161.462 1007 -30.0000 161.100 TC 15 1007 -29.9904 161.199 1 24 12 85
1958170S28155 1958 45 SP MM NOT_NAMED 1958-06-21 03:00:00 TS -29.9549 161.747 main 792 792 P_____P__PP___ SH331958 -30.0611 161.462 25 -1 -29.7789 162.200 1008 -29.8792 162.030 TC 15 1008 -29.9942 161.581 1 23 6 99
1958170S28155 1958 45 SP MM NOT_NAMED 1958-06-21 06:00:00 TS -30.0725 161.908 main 813 813 O_____P__PP___ jtwc_sh SH331958 -30.2000 161.600 25 -1 -29.8972 162.277 1009 -29.9873 162.302 TC 15 1009 -30.0781 161.759 1 22 4 150
1958170S28155 1958 45 SP MM NOT_NAMED 1958-06-21 09:00:00 TS -30.2773 161.968 main 825 825 P_____P__PP___ SH331958 -30.3097 161.814 22 -1 -30.2088 162.085 1011 -30.2777 162.249 TC 15 1010 -30.2805 161.879 1 20 5 165
1958170S28155 1958 45 SP MM NOT_NAMED 1958-06-21 11:00:00 TS -30.4979 162.035 1012 bom main 829 829 P_____O__PO___ SH331958 -30.4708 161.989 20 -1 -30.5000 162.000 1012 -30.5477 162.196 TC 15 1011 -30.5000 162.000 1 20 8 160
1958170S28155 1958 45 SP MM NOT_NAMED 1958-06-21 12:00:00 TS -30.6512 162.127 main 843 843 O_____P__OP___ jtwc_sh SH331958 -30.6000 162.100 20 -1 -30.6780 162.119 1012 -30.7000 162.200 TC 15 1012 -30.6780 162.119 1 19 13 152
1958170S28155 1958 45 SP MM NOT_NAMED 1958-06-21 15:00:00 TS -31.2756 162.515 main 892 892 P_____P__PP___ SH331958 -31.2476 162.554 17 -1 -31.3372 162.525 1012 -31.2083 162.419 TC 15 1012 -31.3372 162.525 1 16 15 150
1958170S28155 1958 45 SP MM NOT_NAMED 1958-06-21 18:00:00 TS -31.9806 163.023 main 933 858 O_____P__PP___ jtwc_sh SH331958 -32.0000 163.100 15 -1 -32.0636 163.011 1012 -31.7759 162.896 TC 15 1012 -32.0636 163.011 1 14 16 146
1958170S28155 1958 45 SP MM NOT_NAMED 1958-06-21 21:00:00 TS -32.6309 163.591 main 858 813 P_____P__PP___ SH331958 -32.6545 163.619 12 -1 -32.7012 163.578 1012 -32.3804 163.550 TC 15 1012 -32.7012 163.578 1 11 16 140
1958170S28155 1958 45 SP MM NOT_NAMED 1958-06-21 23:00:00 TS -32.9713 164.003 1012 bom main 810 789 P_____O__PO___ SH331958 -32.9870 163.997 10 -1 -33.0000 164.000 1012 -32.7931 164.045 TC 15 1012 -33.0000 164.000 1 10 14 131
1958170S28155 1958 45 SP MM NOT_NAMED 1958-06-22 00:00:00 TS -33.0911 164.219 main 789 724 O_____P__OP___ jtwc_sh SH331958 -33.1000 164.200 10 -1 -33.0957 164.224 1012 -33.0000 164.300 TC 15 1012 -33.0957 164.224 1 10 12 106
1958170S28155 1958 45 SP MM NOT_NAMED 1958-06-22 03:00:00 TS -33.1894 164.916 main 724 663 P_____P___P___ SH331958 -33.2035 164.874 12 -1 -33.1823 164.937 1012 TC -33.1823 164.937 1 13 12 88
1958170S28155 1958 45 SP MM NOT_NAMED 1958-06-22 06:00:00 TS -33.0509 165.671 main 654 603 O_____P___P___ jtwc_sh SH331958 -33.1000 165.600 15 -1 -33.0345 165.695 1013 TC -33.0345 165.695 1 15 14 71
1958170S28155 1958 45 SP MM NOT_NAMED 1958-06-22 09:00:00 NR -32.7378 166.476 main 598 564 ______P___P___ SH331958 -1 -32.7378 166.476 1014 TC -32.7378 166.476 1 18 15 64
1958170S28155 1958 45 SP MM NOT_NAMED 1958-06-22 11:00:00 NR -32.5000 167.000 1015 bom main 564 ______O___O___ SH331958 -1 -32.5000 167.000 1015 TC -32.5000 167.000 1 20 15 62

デジタル台風データ・検索

IBTrACS Databaseについて

本データベースは、米国NOAAが公開する1842年以降の世界の熱帯低気圧のベストトラックデータアーカイブInternational Best Track Archive for Climate Stewardship (IBTrACS)を、ウェブで閲覧しやすい形式に変換したものです。

最終更新日:2021-11-26